Time;durP1;ratioP1;P1;durP2;ratioP2;P2;SDS_P1;SDS_P2;PMS_P1;PMS_P2;Temp;Humidity;BMP_temperature;BMP_pressure;BME280_temperature;BME280_humidity;BME280_pressure;Samples;Min_cycle;Max_cycle;Signal;HPM_P1;HPM_P2
2023/09/10 00:01:22;;;;;;;0.00;0.00;;;;;;;22.27;68.26;100369.59;4996216;28;20034;-74
2023/09/10 00:03:49;;;;;;;0.00;0.00;;;;;;;22.26;68.09;100365.16;4968305;28;20034;-73
2023/09/10 00:06:14;;;;;;;0.00;0.00;;;;;;;22.25;68.04;100349.59;4973727;28;20033;-73
2023/09/10 00:08:40;;;;;;;0.00;0.00;;;;;;;22.32;68.12;100361.03;4989269;28;20034;-73
2023/09/10 00:11:05;;;;;;;0.00;0.00;;;;;;;22.28;68.10;100360.06;4980927;28;20447;-73
2023/09/10 00:13:31;;;;;;;0.00;0.00;;;;;;;22.25;68.16;100360.75;4976832;28;20532;-74
2023/09/10 00:15:57;;;;;;;0.00;0.00;;;;;;;22.28;67.97;100365.63;4978293;28;20034;-75
2023/09/10 00:18:23;;;;;;;0.00;0.00;;;;;;;22.26;67.86;100359.59;4976598;28;20047;-73
2023/09/10 00:20:51;;;;;;;0.00;0.00;;;;;;;22.27;67.92;100364.03;4975836;28;20658;-75
2023/09/10 00:23:17;;;;;;;0.00;0.00;;;;;;;22.24;68.10;100354.38;4971822;28;20034;-74
2023/09/10 00:25:42;;;;;;;0.00;0.00;;;;;;;22.24;68.21;100342.41;4972827;28;20078;-73
2023/09/10 00:28:08;;;;;;;0.00;0.00;;;;;;;22.26;67.94;100343.69;4957424;28;21057;-74
2023/09/10 00:30:33;;;;;;;0.00;0.00;;;;;;;22.36;68.14;100358.38;4979294;28;20041;-73
2023/09/10 00:32:59;;;;;;;0.00;0.00;;;;;;;22.32;68.22;100358.25;4976754;28;20026;-73
2023/09/10 00:35:24;;;;;;;0.00;0.00;;;;;;;22.21;68.54;100360.66;4931940;28;20043;-74
2023/09/10 00:37:50;;;;;;;0.00;0.00;;;;;;;22.16;69.30;100379.56;4975706;28;20030;-74
2023/09/10 00:40:15;;;;;;;0.00;0.00;;;;;;;21.98;70.26;100379.75;4964142;28;20463;-73
2023/09/10 00:42:41;;;;;;;0.00;0.00;;;;;;;21.79;71.31;100377.50;4975320;28;20405;-74
2023/09/10 00:45:12;;;;;;;0.00;0.00;;;;;;;21.62;72.09;100372.91;4977928;28;20030;-73
2023/09/10 00:47:40;;;;;;;0.00;0.00;;;;;;;21.45;72.21;100374.69;4960954;28;20081;-74
2023/09/10 00:50:09;;;;;;;0.00;0.00;;;;;;;21.38;72.49;100382.75;4967236;28;20062;-73
2023/09/10 00:52:40;;;;;;;0.00;0.00;;;;;;;21.32;72.57;100378.56;4958430;28;20045;-73
2023/09/10 00:55:06;;;;;;;0.00;0.00;;;;;;;21.25;73.07;100375.50;4962312;28;20027;-74
2023/09/10 00:57:32;;;;;;;0.00;0.00;;;;;;;21.20;73.34;100384.03;4951463;28;20046;-74
2023/09/10 00:59:58;;;;;;;0.00;0.00;;;;;;;21.13;73.56;100384.59;4978427;28;20497;-74
2023/09/10 01:02:23;;;;;;;0.00;0.00;;;;;;;21.06;73.87;100379.56;4954979;28;20122;-73
2023/09/10 01:04:49;;;;;;;0.00;0.00;;;;;;;21.06;74.12;100389.88;4967341;28;20121;-73
2023/09/10 01:07:15;;;;;;;0.00;0.00;;;;;;;20.95;74.62;100389.44;4953194;28;20435;-73
2023/09/10 01:09:40;;;;;;;0.00;0.00;;;;;;;20.90;74.86;100384.91;4959515;28;20038;-73
2023/09/10 01:12:32;;;;;;;0.00;0.00;;;;;;;20.84;75.21;100383.47;4969560;28;20448;-73
2023/09/10 01:15:10;;;;;;;0.00;0.00;;;;;;;20.81;75.66;100388.88;4966917;28;20070;-72
2023/09/10 01:18:03;;;;;;;0.00;0.00;;;;;;;20.73;76.63;100382.22;4948939;28;20042;-72
2023/09/10 01:20:28;;;;;;;0.00;0.00;;;;;;;20.69;77.43;100382.09;4975063;28;20023;-73
2023/09/10 01:23:07;;;;;;;0.00;0.00;;;;;;;20.66;77.85;100382.78;4957383;28;20507;-71
2023/09/10 01:25:33;;;;;;;0.00;0.00;;;;;;;20.72;78.28;100375.88;4979099;28;20058;-69
2023/09/10 01:28:04;;;;;;;0.00;0.00;;;;;;;20.73;78.37;100376.69;4943251;28;20057;-70
2023/09/10 01:30:33;;;;;;;0.00;0.00;;;;;;;20.68;78.24;100369.34;4974749;28;20054;-70
2023/09/10 01:33:28;;;;;;;0.00;0.00;;;;;;;20.73;78.23;100360.84;4967918;28;20018;-72
2023/09/10 01:36:08;;;;;;;0.00;0.00;;;;;;;20.78;77.64;100350.66;4962856;28;20084;-71
2023/09/10 01:38:43;;;;;;;0.00;0.00;;;;;;;20.83;77.25;100342.94;4982535;28;20022;-70
2023/09/10 01:41:15;;;;;;;0.00;0.00;;;;;;;20.96;76.66;100351.38;4977308;28;20057;-69
2023/09/10 01:43:41;;;;;;;0.00;0.00;;;;;;;21.05;76.18;100347.34;4979079;28;20031;-70
2023/09/10 01:46:08;;;;;;;0.00;0.00;;;;;;;21.10;75.66;100336.03;4939387;28;20038;-71
2023/09/10 01:48:34;;;;;;;0.00;0.00;;;;;;;21.22;75.24;100343.63;4982047;28;20056;-71
2023/09/10 01:50:59;;;;;;;0.00;0.00;;;;;;;21.27;74.87;100343.44;4950091;28;20054;-73
2023/09/10 01:53:25;;;;;;;0.00;0.00;;;;;;;21.33;74.80;100344.00;4976670;28;20405;-72
2023/09/10 01:55:51;;;;;;;0.00;0.00;;;;;;;21.28;74.43;100339.47;4957868;28;20060;-70
2023/09/10 01:58:16;;;;;;;0.00;0.00;;;;;;;21.32;74.47;100345.19;4963776;28;20445;-72
2023/09/10 02:00:42;;;;;;;0.00;0.00;;;;;;;21.27;74.12;100342.59;4975458;28;20073;-73
2023/09/10 02:03:07;;;;;;;0.00;0.00;;;;;;;21.29;73.99;100343.09;4927389;28;20035;-72
2023/09/10 02:05:33;;;;;;;0.00;0.00;;;;;;;21.34;73.90;100339.28;4976341;28;20031;-73
2023/09/10 02:07:58;;;;;;;0.00;0.00;;;;;;;21.31;73.95;100335.22;4962489;28;20389;-71
2023/09/10 02:10:24;;;;;;;0.00;0.00;;;;;;;21.26;74.18;100316.78;4960365;28;20041;-70
2023/09/10 02:12:49;;;;;;;0.00;0.00;;;;;;;21.48;73.84;100313.94;4979280;28;20058;-71
2023/09/10 02:15:17;;;;;;;0.00;0.00;;;;;;;21.74;73.24;100320.09;4959297;28;20472;-71
2023/09/10 02:17:42;;;;;;;0.00;0.00;;;;;;;22.08;72.34;100300.53;4961932;28;20088;-71
2023/09/10 02:20:09;;;;;;;0.00;0.00;;;;;;;22.40;71.52;100309.13;4974909;28;20121;-72
2023/09/10 02:22:36;;;;;;;0.00;0.00;;;;;;;22.59;70.78;100302.97;4996939;28;20057;-71
2023/09/10 02:25:03;;;;;;;0.00;0.00;;;;;;;22.68;69.98;100312.03;4996296;28;20509;-71
2023/09/10 02:27:29;;;;;;;0.00;0.00;;;;;;;22.64;69.99;100305.53;4962356;28;20061;-71
2023/09/10 02:29:54;;;;;;;0.00;0.00;;;;;;;22.63;70.09;100312.25;4984188;28;20480;-69
2023/09/10 02:32:20;;;;;;;0.00;0.00;;;;;;;22.68;70.10;100312.03;4958333;28;20124;-70
2023/09/10 02:34:45;;;;;;;0.00;0.00;;;;;;;22.84;69.29;100301.75;4979644;28;20029;-71
2023/09/10 02:37:12;;;;;;;0.00;0.00;;;;;;;23.03;69.16;100300.31;4961549;28;20418;-70
2023/09/10 02:39:38;;;;;;;0.00;0.00;;;;;;;23.19;68.78;100303.19;4982688;28;20037;-71
2023/09/10 02:42:03;;;;;;;0.00;0.00;;;;;;;23.26;68.17;100302.56;4993980;28;20033;-71
2023/09/10 02:44:28;;;;;;;0.00;0.00;;;;;;;23.18;67.46;100296.78;4970598;28;20037;-72
2023/09/10 02:46:54;;;;;;;0.00;0.00;;;;;;;23.02;67.98;100309.84;4969041;28;20034;-72
2023/09/10 02:49:19;;;;;;;0.00;0.00;;;;;;;22.77;68.14;100304.31;4997770;28;20133;-71
2023/09/10 02:51:45;;;;;;;0.00;0.00;;;;;;;22.66;68.89;100294.81;4999518;28;20034;-71
2023/09/10 02:54:10;;;;;;;0.00;0.00;;;;;;;22.55;69.04;100299.28;4960846;28;20049;-72
2023/09/10 02:56:36;;;;;;;0.00;0.00;;;;;;;22.58;69.13;100290.22;4963702;28;20030;-72
2023/09/10 02:59:01;;;;;;;0.00;0.00;;;;;;;22.76;69.05;100285.97;4974562;28;20091;-73
2023/09/10 03:01:26;;;;;;;0.00;0.00;;;;;;;22.93;68.01;100278.50;4958688;28;20105;-72
2023/09/10 03:03:52;;;;;;;0.00;0.00;;;;;;;23.11;68.08;100277.06;4981576;28;20701;-70
2023/09/10 03:06:17;;;;;;;0.00;0.00;;;;;;;23.20;67.33;100276.09;4971249;28;20438;-71
2023/09/10 03:08:44;;;;;;;0.00;0.00;;;;;;;23.05;67.25;100280.44;4971384;28;20027;-70
2023/09/10 03:11:10;;;;;;;0.00;0.00;;;;;;;22.92;67.67;100280.47;4978680;28;20057;-71
2023/09/10 03:13:35;;;;;;;0.00;0.00;;;;;;;23.02;67.32;100270.81;4997028;28;20053;-71
2023/09/10 03:16:01;;;;;;;0.00;0.00;;;;;;;23.07;67.21;100276.13;4977784;28;20046;-72
2023/09/10 03:18:26;;;;;;;0.00;0.00;;;;;;;22.89;66.94;100277.59;4982808;28;20050;-71
2023/09/10 03:20:52;;;;;;;0.00;0.00;;;;;;;22.68;68.01;100278.56;4950778;28;20038;-72
2023/09/10 03:23:18;;;;;;;0.00;0.00;;;;;;;22.47;68.57;100285.13;4965161;28;20647;-73
2023/09/10 03:25:43;;;;;;;0.00;0.00;;;;;;;22.22;69.03;100283.47;4981211;28;20022;-72
2023/09/10 03:28:09;;;;;;;0.00;0.00;;;;;;;22.02;69.28;100291.59;4954443;28;20033;-71
2023/09/10 03:30:34;;;;;;;0.00;0.00;;;;;;;21.83;69.71;100294.13;4959116;28;20830;-71
2023/09/10 03:33:00;;;;;;;0.00;0.00;;;;;;;21.67;69.84;100285.63;4969111;28;20117;-72
2023/09/10 03:35:25;;;;;;;0.00;0.00;;;;;;;21.57;70.42;100284.91;4954949;28;20037;-72
2023/09/10 03:37:51;;;;;;;0.00;0.00;;;;;;;21.50;70.94;100278.25;4978325;28;20081;-72
2023/09/10 03:40:16;;;;;;;0.00;0.00;;;;;;;21.43;70.69;100276.03;4982492;28;20022;-72
2023/09/10 03:42:41;;;;;;;0.00;0.00;;;;;;;21.37;71.39;100283.78;4986504;28;20384;-71
2023/09/10 03:45:07;;;;;;;0.00;0.00;;;;;;;21.28;72.44;100291.41;4958691;28;20041;-71
2023/09/10 03:47:35;;;;;;;0.00;0.00;;;;;;;21.13;73.49;100289.25;4980334;28;20030;-73
2023/09/10 03:50:00;;;;;;;0.00;0.00;;;;;;;21.00;74.69;100303.09;4972155;28;20432;-73
2023/09/10 03:52:26;;;;;;;0.00;0.00;;;;;;;20.92;74.99;100295.63;4972965;28;20038;-72
2023/09/10 03:54:51;;;;;;;0.00;0.00;;;;;;;20.85;75.31;100300.91;4944743;28;20049;-71
2023/09/10 03:57:17;;;;;;;0.00;0.00;;;;;;;20.81;75.68;100300.78;4990258;28;20030;-70
2023/09/10 03:59:42;;;;;;;0.00;0.00;;;;;;;20.78;76.08;100306.19;4976716;28;20034;-71
2023/09/10 04:02:08;;;;;;;0.00;0.00;;;;;;;20.70;76.76;100300.38;4975995;28;20110;-71
2023/09/10 04:04:34;;;;;;;0.00;0.00;;;;;;;20.67;77.02;100303.81;4984547;28;20018;-71
2023/09/10 04:06:59;;;;;;;0.00;0.00;;;;;;;20.66;77.65;100315.25;4953457;28;20015;-70
2023/09/10 04:09:25;;;;;;;0.00;0.00;;;;;;;20.62;78.03;100320.66;4951384;28;20042;-71
2023/09/10 04:11:51;;;;;;;0.00;0.00;;;;;;;20.60;78.37;100322.94;4976125;28;20105;-71
2023/09/10 04:14:16;;;;;;;0.00;0.00;;;;;;;20.50;78.89;100328.91;4960025;28;21675;-71
2023/09/10 04:16:42;;;;;;;0.00;0.00;;;;;;;20.45;79.47;100343.00;4974446;28;20173;-72
2023/09/10 04:19:07;;;;;;;0.00;0.00;;;;;;;20.36;80.20;100345.81;4965708;28;20047;-72
2023/09/10 04:21:34;;;;;;;0.00;0.00;;;;;;;20.30;81.50;100344.38;4977753;28;20041;-72
2023/09/10 04:23:59;;;;;;;0.00;0.00;;;;;;;20.26;81.55;100362.84;4954464;28;20062;-72
2023/09/10 04:26:25;;;;;;;0.00;0.00;;;;;;;20.21;83.27;100356.31;4965464;28;20049;-71
2023/09/10 04:28:51;;;;;;;0.00;0.00;;;;;;;20.25;83.69;100361.22;4972406;28;20030;-71
2023/09/10 04:31:16;;;;;;;0.00;0.00;;;;;;;20.17;83.91;100351.78;4973215;28;20041;-70
2023/09/10 04:33:42;;;;;;;0.00;0.00;;;;;;;20.11;84.08;100345.59;4956428;28;20184;-72
2023/09/10 04:36:08;;;;;;;0.00;0.00;;;;;;;20.12;83.70;100346.41;4952530;28;20030;-72
2023/09/10 04:38:33;;;;;;;0.00;0.00;;;;;;;20.13;83.56;100342.47;4976028;28;20030;-72
2023/09/10 04:40:59;;;;;;;0.00;0.00;;;;;;;20.19;84.16;100341.13;4948584;28;20069;-73
2023/09/10 04:43:25;;;;;;;0.00;0.00;;;;;;;20.11;84.35;100325.34;4962851;28;20039;-73
2023/09/10 04:45:50;;;;;;;0.00;0.00;;;;;;;20.18;84.10;100339.50;4978865;28;20027;-71
2023/09/10 04:48:17;;;;;;;0.00;0.00;;;;;;;20.18;84.79;100333.94;4971487;28;20461;-73
2023/09/10 04:50:43;;;;;;;0.00;0.00;;;;;;;20.19;84.71;100330.88;4950921;28;20465;-71
2023/09/10 04:53:10;;;;;;;0.00;0.00;;;;;;;20.22;84.84;100335.75;4968606;28;20101;-71
2023/09/10 04:55:35;;;;;;;0.00;0.00;;;;;;;20.18;84.49;100317.28;4968857;28;20154;-72
2023/09/10 04:58:01;;;;;;;0.00;0.00;;;;;;;20.22;84.35;100323.81;4993074;28;20049;-72
2023/09/10 05:00:26;;;;;;;0.00;0.00;;;;;;;20.28;84.23;100330.00;4970412;28;20019;-71
2023/09/10 05:02:52;;;;;;;0.00;0.00;;;;;;;20.37;84.21;100337.16;4976965;28;20030;-74
2023/09/10 05:05:17;;;;;;;0.00;0.00;;;;;;;20.40;84.17;100322.59;4967286;28;20037;-72
2023/09/10 05:07:43;;;;;;;0.00;0.00;;;;;;;20.46;83.99;100331.53;4976254;28;20026;-73
2023/09/10 05:10:10;;;;;;;0.00;0.00;;;;;;;20.49;83.57;100322.53;4976144;28;20030;-73
2023/09/10 05:12:35;;;;;;;0.00;0.00;;;;;;;20.52;83.32;100326.63;4970901;28;20027;-73
2023/09/10 05:15:01;;;;;;;0.00;0.00;;;;;;;20.46;83.43;100317.66;4973114;28;20097;-74
2023/09/10 05:17:26;;;;;;;0.00;0.00;;;;;;;20.50;82.90;100312.22;4971302;28;20057;-74
2023/09/10 05:19:52;;;;;;;0.00;0.00;;;;;;;20.48;82.66;100309.00;4959996;28;20042;-73
2023/09/10 05:22:17;;;;;;;0.00;0.00;;;;;;;20.45;82.77;100315.22;4983522;28;20086;-73
2023/09/10 05:24:42;;;;;;;0.00;0.00;;;;;;;20.49;82.78;100316.19;4984305;28;20077;-71
2023/09/10 05:27:08;;;;;;;0.00;0.00;;;;;;;20.54;82.13;100324.31;4990582;28;20453;-72
2023/09/10 05:29:33;;;;;;;0.00;0.00;;;;;;;20.59;82.21;100326.91;4985769;28;20373;-72
2023/09/10 05:31:59;;;;;;;0.00;0.00;;;;;;;20.79;81.78;100325.31;4961967;28;20031;-70
2023/09/10 05:34:24;;;;;;;0.00;0.00;;;;;;;20.95;80.69;100328.31;4949523;28;20037;-70
2023/09/10 05:36:50;;;;;;;0.00;0.00;;;;;;;20.98;80.27;100324.84;4973510;28;20100;-72
2023/09/10 05:39:15;;;;;;;0.00;0.00;;;;;;;21.04;80.03;100329.06;4965216;28;20046;-72
2023/09/10 05:41:41;;;;;;;0.00;0.00;;;;;;;21.10;79.85;100321.34;4960464;28;20059;-73
2023/09/10 05:44:07;;;;;;;0.00;0.00;;;;;;;21.14;79.50;100335.34;4976255;28;20041;-72
2023/09/10 05:46:33;;;;;;;0.00;0.00;;;;;;;21.16;79.63;100333.03;4972774;28;20018;-73
2023/09/10 05:48:58;;;;;;;0.00;0.00;;;;;;;21.13;79.40;100323.44;4962058;28;20031;-73
2023/09/10 05:51:24;;;;;;;0.00;0.00;;;;;;;21.22;79.46;100324.16;4959064;28;20119;-72
2023/09/10 05:53:49;;;;;;;0.00;0.00;;;;;;;21.50;78.95;100320.00;4957449;28;20050;-73
2023/09/10 05:56:15;;;;;;;0.00;0.00;;;;;;;21.96;77.40;100329.16;4948585;28;20026;-71
2023/09/10 05:58:40;;;;;;;0.00;0.00;;;;;;;22.24;76.22;100320.13;4965391;28;20072;-71
2023/09/10 06:01:06;;;;;;;0.00;0.00;;;;;;;22.52;75.70;100309.13;4956532;28;20042;-71
2023/09/10 06:03:31;;;;;;;0.00;0.00;;;;;;;22.84;74.87;100301.75;4981048;28;20026;-71
2023/09/10 06:05:58;;;;;;;0.00;0.00;;;;;;;23.07;73.50;100290.09;4955597;28;20547;-72
2023/09/10 06:08:26;;;;;;;0.00;0.00;;;;;;;23.31;73.47;100282.81;4965345;28;20034;-72
2023/09/10 06:10:52;;;;;;;0.00;0.00;;;;;;;23.41;71.74;100285.06;4956637;28;20022;-73
2023/09/10 06:13:17;;;;;;;0.00;0.00;;;;;;;23.45;71.67;100286.00;4966292;28;20109;-72
2023/09/10 06:15:43;;;;;;;0.00;0.00;;;;;;;23.53;71.72;100286.97;4958679;28;20050;-73
2023/09/10 06:18:09;;;;;;;0.00;0.00;;;;;;;23.62;71.18;100297.97;4971283;28;20515;-73
2023/09/10 06:20:35;;;;;;;0.00;0.00;;;;;;;23.71;70.61;100307.00;4978386;28;20042;-73
2023/09/10 06:23:00;;;;;;;0.00;0.00;;;;;;;23.72;70.53;100308.63;4982111;28;20107;-73
2023/09/10 06:25:26;;;;;;;0.00;0.00;;;;;;;23.73;70.49;100310.25;4948028;28;20402;-73
2023/09/10 06:27:52;;;;;;;0.00;0.00;;;;;;;23.76;70.31;100315.13;4977622;28;20030;-71
2023/09/10 06:30:17;;;;;;;0.00;0.00;;;;;;;23.63;70.05;100307.97;4990660;28;20034;-73
2023/09/10 06:32:42;;;;;;;0.00;0.00;;;;;;;23.60;70.94;100303.13;4996088;28;20075;-73
2023/09/10 06:35:08;;;;;;;0.00;0.00;;;;;;;23.65;70.96;100297.25;4978469;28;20048;-71
2023/09/10 06:37:33;;;;;;;0.00;0.00;;;;;;;23.85;69.96;100293.41;4994331;28;20503;-72
2023/09/10 06:39:59;;;;;;;0.00;0.00;;;;;;;24.06;69.10;100289.56;4985179;28;20112;-72
2023/09/10 06:42:25;;;;;;;0.00;0.00;;;;;;;24.23;69.06;100294.78;4984950;28;20026;-71
2023/09/10 06:44:50;;;;;;;0.00;0.00;;;;;;;24.21;68.43;100291.53;4974858;28;20814;-72
2023/09/10 06:47:16;;;;;;;0.00;0.00;;;;;;;24.08;68.71;100297.56;4982140;28;20032;-73
2023/09/10 06:49:44;;;;;;;0.00;0.00;;;;;;;23.88;69.27;100294.72;4967681;28;20061;-72
2023/09/10 06:52:12;;;;;;;0.00;0.00;;;;;;;23.81;69.06;100297.28;4994878;28;20037;-74
2023/09/10 06:54:38;;;;;;;0.00;0.00;;;;;;;23.73;69.24;100268.38;4981187;28;20065;-73
2023/09/10 06:57:03;;;;;;;0.00;0.00;;;;;;;24.01;68.53;100278.69;4973399;28;20449;-72
2023/09/10 06:59:31;;;;;;;0.00;0.00;;;;;;;24.23;67.87;100266.03;4986852;28;20042;-72
2023/09/10 07:02:02;;;;;;;0.00;0.00;;;;;;;24.41;67.60;100269.22;4981151;28;20477;-73
2023/09/10 07:04:30;;;;;;;0.00;0.00;;;;;;;24.45;67.14;100253.38;4988382;28;20037;-74
2023/09/10 07:06:58;;;;;;;0.00;0.00;;;;;;;24.50;66.68;100247.50;4957306;28;20033;-74
2023/09/10 07:09:24;;;;;;;0.00;0.00;;;;;;;24.67;66.76;100262.25;4999998;28;20577;-72
2023/09/10 07:11:51;;;;;;;0.00;0.00;;;;;;;24.70;66.15;100273.50;4975622;28;20045;-72
2023/09/10 07:14:17;;;;;;;0.00;0.00;;;;;;;24.64;66.64;100263.00;4973277;28;20084;-72
2023/09/10 07:16:42;;;;;;;0.00;0.00;;;;;;;24.42;66.73;100262.47;4975289;28;20030;-72
2023/09/10 07:19:08;;;;;;;0.00;0.00;;;;;;;24.26;67.29;100281.28;4974762;28;20050;-72
2023/09/10 07:21:33;;;;;;;0.00;0.00;;;;;;;24.15;67.15;100265.06;4956984;28;20047;-72
2023/09/10 07:24:06;;;;;;;0.00;0.00;;;;;;;24.07;68.31;100260.47;4977540;28;20061;-72
2023/09/10 07:26:34;;;;;;;0.00;0.00;;;;;;;24.07;68.00;100254.88;4949719;28;20105;-74
2023/09/10 07:28:59;;;;;;;0.00;0.00;;;;;;;24.13;67.48;100256.22;4966642;28;20469;-73
2023/09/10 07:31:25;;;;;;;0.00;0.00;;;;;;;24.33;67.49;100261.88;4958843;28;20062;-72
2023/09/10 07:33:50;;;;;;;0.00;0.00;;;;;;;24.65;67.16;100264.59;4964038;28;20054;-72
2023/09/10 07:36:16;;;;;;;0.00;0.00;;;;;;;25.05;65.95;100266.25;4960808;28;20809;-73
2023/09/10 07:38:41;;;;;;;0.00;0.00;;;;;;;25.39;65.20;100274.94;4962044;28;20030;-72
2023/09/10 07:41:07;;;;;;;0.00;0.00;;;;;;;25.52;64.34;100262.38;4956485;28;20038;-74
2023/09/10 07:43:35;;;;;;;0.00;0.00;;;;;;;25.74;64.40;100280.38;4972355;28;20065;-73
2023/09/10 07:46:03;;;;;;;0.00;0.00;;;;;;;25.77;63.76;100264.81;4931272;28;20023;-73
2023/09/10 07:48:35;;;;;;;0.00;0.00;;;;;;;25.88;63.14;100273.41;4980575;28;20122;-72
2023/09/10 07:51:50;;;;;;;0.00;0.00;;;;;;;25.91;63.59;100293.06;4962599;28;20397;-73
2023/09/10 07:54:20;;;;;;;0.00;0.00;;;;;;;25.76;63.81;100288.41;4961760;28;20042;-74
2023/09/10 07:56:57;;;;;;;0.00;0.00;;;;;;;25.60;64.29;100297.72;4963549;28;20027;-73
2023/09/10 07:59:26;;;;;;;0.00;0.00;;;;;;;25.48;63.88;100283.09;4963510;28;20042;-74
2023/09/10 08:01:59;;;;;;;0.00;0.00;;;;;;;25.57;64.24;100292.88;4970494;28;20022;-73
2023/09/10 08:04:30;;;;;;;0.00;0.00;;;;;;;25.56;63.79;100279.25;4951895;28;20093;-73
2023/09/10 08:07:02;;;;;;;0.00;0.00;;;;;;;25.66;63.85;100292.63;4962555;28;20023;-71
2023/09/10 08:15:15;;;;;;;0.00;0.00;;;;;;;25.66;63.34;100300.25;5039288;23;20039;-72
2023/09/10 08:17:40;;;;;;;0.00;0.00;;;;;;;25.66;63.12;100311.44;4962916;28;20030;-70
2023/09/10 08:20:07;;;;;;;0.00;0.00;;;;;;;25.66;63.50;100300.25;4965670;28;20047;-72
2023/09/10 08:22:32;;;;;;;0.00;0.00;;;;;;;25.71;63.21;100302.72;4986019;28;20044;-72
2023/09/10 08:24:58;;;;;;;0.00;0.00;;;;;;;25.69;63.46;100305.09;4986800;28;20818;-71
2023/09/10 08:27:26;;;;;;;0.00;0.00;;;;;;;25.59;63.02;100301.69;4965166;28;20674;-72
2023/09/10 08:29:51;;;;;;;0.00;0.00;;;;;;;25.54;63.26;100296.41;4970244;28;20030;-71
2023/09/10 08:32:17;;;;;;;0.00;0.00;;;;;;;25.58;63.51;100299.28;4983511;28;20030;-71
2023/09/10 08:34:42;;;;;;;0.00;0.00;;;;;;;25.75;63.30;100301.59;4964866;28;20030;-71
2023/09/10 08:37:15;;;;;;;0.00;0.00;;;;;;;25.89;62.80;100281.44;4984128;28;20038;-72
2023/09/10 08:39:48;;;;;;;0.00;0.00;;;;;;;25.91;61.96;100245.44;4964423;28;20169;-72
2023/09/10 08:42:26;;;;;;;0.00;0.00;;;;;;;26.20;61.86;100257.16;4956390;28;20121;-72
2023/09/10 08:45:00;;;;;;;0.00;0.00;;;;;;;26.35;61.42;100251.75;4982521;28;20065;-72
2023/09/10 08:47:29;;;;;;;0.00;0.00;;;;;;;26.40;61.09;100237.41;4966409;28;20034;-71
2023/09/10 08:50:02;;;;;;;0.00;0.00;;;;;;;26.42;60.92;100201.41;4969916;28;20026;-73
2023/09/10 08:52:30;;;;;;;0.00;0.00;;;;;;;26.60;60.59;100191.22;4986173;28;20516;-74
2023/09/10 08:54:56;;;;;;;0.00;0.00;;;;;;;26.95;60.00;100200.47;4944254;28;20122;-73
2023/09/10 08:57:23;;;;;;;0.00;0.00;;;;;;;27.31;59.57;100212.91;4983707;28;20108;-72
2023/09/10 08:59:50;;;;;;;0.00;0.00;;;;;;;27.67;58.52;100224.50;4981293;28;20037;-74
2023/09/10 09:02:16;;;;;;;0.00;0.00;;;;;;;27.85;57.89;100232.28;4982487;28;20109;-72
2023/09/10 09:04:43;;;;;;;0.00;0.00;;;;;;;27.85;57.63;100223.84;4969699;28;20117;-73
2023/09/10 09:07:15;;;;;;;0.00;0.00;;;;;;;27.83;57.98;100231.84;4965833;28;20388;-73
2023/09/10 09:09:49;;;;;;;0.00;0.00;;;;;;;27.82;57.93;100233.06;4965228;28;20026;-76
2023/09/10 09:12:16;;;;;;;0.00;0.00;;;;;;;27.77;57.78;100233.41;4968231;28;20030;-73
2023/09/10 09:14:43;;;;;;;0.00;0.00;;;;;;;27.80;58.27;100227.00;4974310;28;20057;-73
2023/09/10 09:17:12;;;;;;;0.00;0.00;;;;;;;27.81;57.65;100228.63;4985607;28;20054;-73
2023/09/10 09:19:43;;;;;;;0.00;0.00;;;;;;;27.75;57.97;100230.19;4995119;28;20432;-74
2023/09/10 09:22:09;;;;;;;0.00;0.00;;;;;;;27.61;58.11;100220.44;5002176;28;20026;-75
2023/09/10 09:24:36;;;;;;;0.00;0.00;;;;;;;27.57;58.12;100222.41;4974470;28;20085;-73
2023/09/10 09:27:03;;;;;;;0.00;0.00;;;;;;;27.57;58.00;100235.63;4936887;28;20023;-73
2023/09/10 09:29:30;;;;;;;0.00;0.00;;;;;;;27.65;58.44;100238.09;4950912;28;20027;-75
2023/09/10 09:31:56;;;;;;;0.00;0.00;;;;;;;27.77;58.18;100239.81;4982618;28;20046;-75
2023/09/10 09:34:21;;;;;;;0.00;0.00;;;;;;;27.75;57.99;100241.41;4983108;28;20042;-73
2023/09/10 09:36:53;;;;;;;0.00;0.00;;;;;;;27.58;58.54;100249.28;4982585;28;20036;-74
2023/09/10 09:39:20;;;;;;;0.00;0.00;;;;;;;27.44;58.74;100243.53;4980923;28;20050;-72
2023/09/10 09:41:53;;;;;;;0.00;0.00;;;;;;;27.31;59.23;100231.75;4982214;28;20019;-75
2023/09/10 09:44:24;;;;;;;0.00;0.00;;;;;;;27.12;59.64;100232.75;4980504;28;20038;-75
2023/09/10 09:46:50;;;;;;;0.00;0.00;;;;;;;27.02;59.14;100227.81;4983175;28;20037;-74
2023/09/10 09:49:16;;;;;;;0.00;0.00;;;;;;;26.99;59.22;100223.78;4968230;28;20137;-75
2023/09/10 09:51:43;;;;;;;0.00;0.00;;;;;;;26.79;59.49;100189.47;4983299;28;20128;-72
2023/09/10 09:54:09;;;;;;;0.00;0.00;;;;;;;26.95;59.58;100222.94;4948204;28;20026;-73
2023/09/10 09:56:38;;;;;;;0.00;0.00;;;;;;;26.91;59.27;100217.28;4980506;28;20038;-75
2023/09/10 09:59:06;;;;;;;0.00;0.00;;;;;;;26.86;59.14;100225.22;4981571;28;20065;-74
2023/09/10 10:01:36;;;;;;;0.00;0.00;;;;;;;26.83;59.82;100232.41;4968265;28;20026;-73
2023/09/10 10:04:03;;;;;;;0.00;0.00;;;;;;;26.79;59.60;100237.16;4982227;28;20195;-74
2023/09/10 10:06:28;;;;;;;0.00;0.00;;;;;;;26.75;59.90;100230.69;4980927;28;20496;-74
2023/09/10 10:08:54;;;;;;;0.00;0.00;;;;;;;26.65;60.09;100227.34;4983515;28;20041;-73
2023/09/10 10:11:29;;;;;;;0.00;0.00;;;;;;;26.65;60.60;100238.56;4984664;28;20034;-72
2023/09/10 10:13:58;;;;;;;0.00;0.00;;;;;;;26.61;60.59;100246.13;4975414;28;20057;-74
2023/09/10 10:16:26;;;;;;;0.00;0.00;;;;;;;26.54;60.58;100245.22;4975387;28;20136;-73
2023/09/10 10:18:53;;;;;;;0.00;0.00;;;;;;;26.49;60.81;100263.19;4960589;28;20045;-73
2023/09/10 10:21:23;;;;;;;0.00;0.00;;;;;;;26.45;61.00;100273.53;4978528;28;20038;-73
2023/09/10 10:23:56;;;;;;;0.00;0.00;;;;;;;26.36;61.24;100276.59;4979451;28;20484;-73
2023/09/10 10:26:23;;;;;;;0.00;0.00;;;;;;;26.12;62.04;100289.03;4980149;28;20033;-75
2023/09/10 10:28:52;;;;;;;0.00;0.00;;;;;;;25.91;62.40;100298.66;4982626;28;20511;-75
2023/09/10 10:31:29;;;;;;;0.00;0.00;;;;;;;25.85;62.88;100297.38;4974722;28;20049;-74
2023/09/10 10:34:04;;;;;;;0.00;0.00;;;;;;;25.94;63.08;100297.91;4978071;28;20053;-75
2023/09/10 10:36:36;;;;;;;0.00;0.00;;;;;;;26.11;63.01;100293.03;4980247;28;20145;-74
2023/09/10 10:39:08;;;;;;;0.00;0.00;;;;;;;26.32;62.72;100308.56;4978234;28;20081;-74
2023/09/10 10:41:37;;;;;;;0.00;0.00;;;;;;;26.21;63.01;100309.22;4978080;28;20027;-74
2023/09/10 10:44:17;;;;;;;0.00;0.00;;;;;;;26.10;63.87;100320.22;4939762;28;20040;-72
2023/09/10 10:46:48;;;;;;;0.00;0.00;;;;;;;25.99;64.05;100312.81;4979208;28;20081;-75
2023/09/10 10:49:13;;;;;;;0.00;0.00;;;;;;;25.97;64.53;100327.19;4983640;28;20065;-73
2023/09/10 10:51:46;;;;;;;0.00;0.00;;;;;;;25.94;64.47;100314.72;4960051;28;20023;-73
2023/09/10 10:54:13;;;;;;;0.00;0.00;;;;;;;26.03;63.51;100319.31;4987610;28;20137;-75
2023/09/10 10:56:40;;;;;;;0.00;0.00;;;;;;;25.71;63.87;100323.13;4994525;28;20125;-73
2023/09/10 10:59:05;;;;;;;0.00;0.00;;;;;;;25.59;64.18;100326.91;4984025;28;20113;-74
2023/09/10 11:01:31;;;;;;;0.00;0.00;;;;;;;25.47;64.13;100324.28;4976556;28;20121;-73
2023/09/10 11:03:56;;;;;;;0.00;0.00;;;;;;;25.17;65.08;100322.03;4949414;28;20034;-73
2023/09/10 11:06:21;;;;;;;0.00;0.00;;;;;;;24.79;66.19;100315.25;4982852;28;20040;-73
2023/09/10 11:08:48;;;;;;;0.00;0.00;;;;;;;24.50;66.98;100324.94;4992622;28;20457;-73
2023/09/10 11:11:36;;;;;;;0.00;0.00;;;;;;;24.03;68.02;100323.78;4983307;28;20122;-72
2023/09/10 11:14:05;;;;;;;0.00;0.00;;;;;;;23.78;69.20;100318.34;4974847;28;20050;-74
2023/09/10 11:16:35;;;;;;;0.00;0.00;;;;;;;23.44;70.70;100303.88;4961228;28;20312;-73
2023/09/10 11:19:03;;;;;;;0.00;0.00;;;;;;;22.90;73.44;100295.94;4992540;28;20653;-75
2023/09/10 11:22:05;;;;;;;0.00;0.00;;;;;;;22.29;76.60;100311.56;4965216;28;20042;-74
2023/09/10 11:24:32;;;;;;;0.00;0.00;;;;;;;21.94;77.44;100296.09;4912785;28;20046;-71
2023/09/10 11:27:25;;;;;;;0.00;0.00;;;;;;;21.74;78.71;100277.53;4980846;28;20027;-72
2023/09/10 11:30:03;;;;;;;0.00;0.00;;;;;;;21.64;78.80;100281.56;4979041;28;20030;-73
2023/09/10 11:32:41;;;;;;;;;;;;;;;;;;;;;
2023/09/10 11:35:29;;;;;;;;;;;;;;;;;;;;;